首页
METAR-TAF:

METAR-TAF

机场 :

阿尔及尔胡阿里·布迈丁机场

阿爾及爾, 阿尔及利亚

纬度: 36-43N, 经度: 003-15E, 海拔: 25米

当前天气观测

该预报发布于42分钟前的21:00 UTC
风速4节,风向东北
温度 20°C
湿度 94%
气压 1018 hPa
能见度10公里或以上
少量云层高于2300英尺

METAR: DAAG 212100Z 04004KT 9999 FEW023 20/19 Q1018

时间: 22:42 (21:42 UTC)

预报

该预报发布于4小时和42分钟前的17:00 UTC
预报有效从21日的 18点(UTC)到 22日的 18点(UTC)
风速10节,风向
能见度10公里或以上
少量云层高于2600英尺
成为
从 21日的 19点(UTC)到 21日的 22点(UTC)
风速2节,风向多变
几率 30% :
短暂存在
从 22日的 00点(UTC)到 22日的 04点(UTC)
能見度: 4000
轻雾
成为
从 22日的 09点(UTC)到 22日的 12点(UTC)
风速10节,风向

TAF: DAAG 211700Z 2118/2218 08010KT 9999 FEW026 BECMG 2119/2122 VRB02KT PROB30 TEMPO 2200/2204 4000 BR BECMG 2209/2212 36010KT

超过4000个机场的气象观测和天气预报(METAR&TAF报告)。

可查询的气象台以黄色和红色小点在地图上表示。

将鼠标移到小点上方,可查看气象台名称。

然后点击查看天气观测和预报。

如需切换地图:点击带黑十字的绿色按钮放大地图;点击带横线的绿色按钮缩小地图;或者点击绿色箭头查看邻近地区的地图。


METAR-TAF: